MDT,Max TemperatureF,Mean TemperatureF,Min TemperatureF,Max Dew PointF,MeanDew PointF,Min DewpointF,Max Humidity, Mean Humidity, Min Humidity, Max Sea Level PressureIn, Mean Sea Level PressureIn, Min Sea Level PressureIn, Max VisibilityMiles, Mean VisibilityMiles, Min VisibilityMiles, Max Wind SpeedMPH, Mean Wind SpeedMPH, Max Gust SpeedMPH,PrecipitationIn, CloudCover, Events, WindDirDegrees
2012-6-1,69,60,51,52,47,45,82,62,43,30.07,30.01,29.98,10,10,10,10,5,16,0.00,5,,1
2012-6-2,77,64,51,52,47,43,88,58,31,29.97,29.86,29.76,10,10,9,24,7,39,0.02,2,Thunderstorm,190
2012-6-3,77,62,48,54,50,46,94,66,38,30.01,29.95,29.89,10,10,9,12,4,,0.00,2,,28
2012-6-4,84,68,51,55,47,36,88,47,19,30.00,29.92,29.78,10,10,10,29,7,33,0.00,0,Thunderstorm,138
2012-6-5,91,75,59,46,36,21,59,29,10,29.78,29.61,29.44,10,10,10,34,11,43,0.00,0,,183
2012-6-6,66,57,48,30,22,18,38,27,18,30.08,29.95,29.66,10,10,10,28,15,40,0.00,0,,282
2012-6-7,69,56,44,36,29,18,51,33,24,30.12,30.04,29.95,10,10,10,13,6,18,0.00,0,,348
2012-6-8,84,67,50,45,34,25,58,34,12,29.94,29.76,29.62,10,10,10,20,7,30,0.00,0,,246
2012-6-9,60,53,46,45,36,19,93,57,25,29.86,29.73,29.65,10,10,10,20,11,30,0.00,4,,339
2012-6-10,55,50,44,34,27,19,47,39,31,30.11,29.92,29.85,10,10,10,30,16,47,0.00,3,,257
2012-6-11,69,60,51,37,33,30,51,38,23,30.20,30.16,30.12,10,10,10,16,9,24,0.00,3,,322
2012-6-12,77,62,48,39,33,28,66,35,18,30.18,30.06,29.95,10,10,10,14,5,20,0.00,1,,249
2012-6-13,80,68,53,41,36,30,62,34,17,29.95,29.83,29.75,10,10,9,20,8,31,0.00,2,,302
2012-6-14,69,56,44,41,36,28,76,46,24,30.01,29.97,29.91,10,10,10,14,6,20,0.00,0,,8
2012-6-15,71,60,48,39,35,28,58,37,21,30.19,30.02,29.94,10,10,10,18,7,28,0.00,2,,332
2012-6-16,82,63,44,37,31,21,71,33,10,30.23,30.11,29.96,10,10,9,18,7,28,0.00,0,,236
2012-6-17,84,74,64,45,31,18,46,22,13,29.96,29.76,29.61,10,10,10,22,10,33,0.00,2,,261
2012-6-18,80,66,53,39,32,19,48,31,10,29.73,29.69,29.61,10,10,10,33,11,44,0.00,0,,286
2012-6-19,66,54,42,37,34,28,81,47,26,29.97,29.85,29.74,10,10,10,16,10,24,0.00,2,,11
2012-6-20,66,54,42,37,35,30,76,46,30,30.22,30.13,29.98,10,10,10,16,7,21,0.00,0,,3
2012-6-21,80,63,46,37,30,21,66,32,12,30.22,30.10,30.00,10,10,10,14,5,18,0.00,0,,136
2012-6-22,82,68,53,46,37,27,48,32,21,30.01,29.85,29.74,10,10,10,16,5,22,0.00,0,,337
2012-6-23,86,70,53,54,48,37,72,46,27,29.89,29.83,29.79,10,10,8,15,5,21,0.00,0,,22
2012-6-24,98,76,55,59,43,25,94,39,10,30.03,29.96,29.89,10,10,9,18,6,21,0.00,0,,129
2012-6-25,93,81,69,45,34,27,34,18,11,30.00,29.93,29.82,10,10,10,24,7,37,0.00,0,,215
2012-6-26,89,78,66,43,32,25,40,19,10,29.84,29.77,29.70,10,10,10,25,13,39,0.00,0,,230
2012-6-27,84,68,51,34,25,19,38,19,11,30.09,29.97,29.85,10,10,9,16,8,28,0.00,0,,310
2012-6-28,91,72,53,36,29,19,38,21,10,30.12,30.05,29.96,10,10,3,16,6,23,0.00,0,,126
2012-6-29,91,76,62,39,28,18,32,17,10,30.08,30.01,29.95,10,10,10,22,8,30,0.00,0,,263
2012-6-30,87,72,57,45,40,34,42,30,19,30.10,30.03,29.94,10,10,10,15,8,18,0.00,0,,356